Time;durP1;ratioP1;P1;durP2;ratioP2;P2;SDS_P1;SDS_P2;PMS_P1;PMS_P2;Temp;Humidity;BMP_temperature;BMP_pressure;BME280_temperature;BME280_humidity;BME280_pressure;Samples;Min_cycle;Max_cycle;Signal;HPM_P1;HPM_P2
2023/03/18 00:01:00;;;;;;;9.27;4.63;;;9.40;99.90;;;;;;4141450;28;20229;-74
2023/03/18 00:03:02;;;;;;;8.77;4.77;;;9.40;99.90;;;;;;4140220;28;20710;-75
2023/03/18 00:05:06;;;;;;;9.43;4.80;;;9.40;99.90;;;;;;4142840;28;20236;-76
2023/03/18 00:07:08;;;;;;;10.83;4.80;;;9.40;99.90;;;;;;4142513;28;20620;-75
2023/03/18 00:09:12;;;;;;;7.07;4.33;;;9.40;99.90;;;;;;4141279;28;20206;-75
2023/03/18 00:11:15;;;;;;;8.80;4.53;;;9.40;99.90;;;;;;4138754;28;20230;-75
2023/03/18 00:13:18;;;;;;;7.83;4.60;;;9.30;99.90;;;;;;4143588;28;20206;-75
2023/03/18 00:15:20;;;;;;;10.03;4.80;;;9.30;99.90;;;;;;4140971;28;20211;-75
2023/03/18 00:17:24;;;;;;;9.50;4.80;;;9.30;99.90;;;;;;4137722;28;20240;-75
2023/03/18 00:19:26;;;;;;;8.87;4.40;;;9.30;99.90;;;;;;4154861;28;20204;-76
2023/03/18 00:21:28;;;;;;;7.73;4.00;;;9.30;99.90;;;;;;4145656;28;20836;-75
2023/03/18 00:23:31;;;;;;;10.33;5.30;;;9.20;99.90;;;;;;4142617;28;20258;-75
2023/03/18 00:25:33;;;;;;;11.30;5.10;;;9.20;99.90;;;;;;4137930;28;20240;-75
2023/03/18 00:27:35;;;;;;;8.33;4.80;;;9.20;99.90;;;;;;4140355;28;20904;-75
2023/03/18 00:29:38;;;;;;;10.80;4.80;;;9.20;99.90;;;;;;4150323;28;20299;-78
2023/03/18 00:31:40;;;;;;;8.33;4.80;;;9.20;99.90;;;;;;4139269;28;20257;-75
2023/03/18 00:33:44;;;;;;;10.70;4.60;;;9.20;99.90;;;;;;4138420;28;20210;-75
2023/03/18 00:35:47;;;;;;;7.63;5.00;;;9.10;99.90;;;;;;4139589;28;20214;-75
2023/03/18 00:37:49;;;;;;;10.50;4.70;;;9.20;99.90;;;;;;4137367;28;20239;-75
2023/03/18 00:39:51;;;;;;;10.27;5.13;;;9.20;99.90;;;;;;4144962;28;20296;-75
2023/03/18 00:41:54;;;;;;;7.97;4.43;;;9.10;99.90;;;;;;4143535;28;20756;-75
2023/03/18 00:43:57;;;;;;;9.73;5.10;;;9.10;99.90;;;;;;4137365;28;20328;-75
2023/03/18 00:45:59;;;;;;;9.23;4.83;;;9.10;99.90;;;;;;4143048;28;20667;-75
2023/03/18 00:48:01;;;;;;;9.37;4.90;;;9.20;99.90;;;;;;4133946;28;20928;-75
2023/03/18 00:50:06;;;;;;;13.23;5.43;;;9.10;99.90;;;;;;4139595;28;20251;-75
2023/03/18 00:52:08;;;;;;;9.23;4.87;;;9.10;99.90;;;;;;4135399;28;20210;-74
2023/03/18 00:54:15;;;;;;;9.80;4.40;;;9.10;99.90;;;;;;4139239;28;20305;-75
2023/03/18 00:56:18;;;;;;;10.20;4.70;;;9.10;99.90;;;;;;4138602;28;20229;-75
2023/03/18 00:58:20;;;;;;;11.83;5.23;;;9.10;99.90;;;;;;4141068;28;20767;-75
2023/03/18 01:00:24;;;;;;;10.20;5.13;;;9.10;99.90;;;;;;4145401;28;20713;-75
2023/03/18 01:02:28;;;;;;;8.03;4.57;;;9.00;99.90;;;;;;4141973;28;20213;-75
2023/03/18 01:04:30;;;;;;;9.13;4.30;;;9.10;99.90;;;;;;4142343;28;20585;-75
2023/03/18 01:06:36;;;;;;;8.87;4.63;;;9.10;99.90;;;;;;4144937;28;20205;-74
2023/03/18 01:08:38;;;;;;;7.37;4.50;;;9.10;99.90;;;;;;4146395;28;20302;-74
2023/03/18 01:10:40;;;;;;;10.07;4.93;;;9.00;99.90;;;;;;4141229;28;20233;-75
2023/03/18 01:12:45;;;;;;;11.77;4.43;;;9.00;99.90;;;;;;4142627;28;20217;-76
2023/03/18 01:14:48;;;;;;;8.23;4.27;;;9.00;99.90;;;;;;4140774;28;20203;-75
2023/03/18 01:16:51;;;;;;;10.10;5.00;;;9.00;99.90;;;;;;4146092;28;20201;-75
2023/03/18 01:18:53;;;;;;;9.63;4.43;;;9.00;99.90;;;;;;4140313;28;20236;-76
2023/03/18 01:20:55;;;;;;;10.03;4.60;;;9.00;99.90;;;;;;4137496;28;20292;-76
2023/03/18 01:22:59;;;;;;;9.43;4.60;;;9.00;99.90;;;;;;4146198;28;20221;-75
2023/03/18 01:25:02;;;;;;;10.73;4.67;;;9.00;99.90;;;;;;4152273;28;20198;-75
2023/03/18 01:27:05;;;;;;;10.20;4.80;;;9.00;99.90;;;;;;4149406;28;20210;-75
2023/03/18 01:29:07;;;;;;;11.43;5.13;;;9.00;99.90;;;;;;4152902;28;20208;-74
2023/03/18 01:31:09;;;;;;;15.00;5.63;;;9.00;99.90;;;;;;4152794;28;20239;-75
2023/03/18 01:33:11;;;;;;;11.53;4.97;;;9.00;99.90;;;;;;4141773;28;20628;-75
2023/03/18 01:35:13;;;;;;;7.73;4.07;;;9.00;99.90;;;;;;4142437;28;20209;-75
2023/03/18 01:37:15;;;;;;;9.17;4.87;;;9.00;99.90;;;;;;4143308;28;20223;-76
2023/03/18 01:39:18;;;;;;;10.87;4.90;;;9.00;99.90;;;;;;4140390;28;20315;-74
2023/03/18 01:41:20;;;;;;;9.17;4.50;;;8.90;99.90;;;;;;4143551;28;20240;-75
2023/03/18 01:43:24;;;;;;;8.73;4.50;;;9.00;99.90;;;;;;4153308;28;20226;-77
2023/03/18 01:45:29;;;;;;;10.33;4.90;;;8.90;99.90;;;;;;4136948;28;20213;-75
2023/03/18 01:47:31;;;;;;;12.73;5.10;;;8.70;99.90;;;;;;4143544;28;20222;-75
2023/03/18 01:49:36;;;;;;;9.80;4.90;;;8.90;99.90;;;;;;4138168;28;20300;-74
2023/03/18 01:51:40;;;;;;;10.27;4.93;;;9.00;99.90;;;;;;4139154;28;20229;-76
2023/03/18 01:53:46;;;;;;;9.37;4.83;;;8.90;99.90;;;;;;4138610;28;20205;-75
2023/03/18 01:55:51;;;;;;;12.37;4.97;;;8.90;99.90;;;;;;4139661;28;20228;-75
2023/03/18 01:57:53;;;;;;;10.00;4.53;;;8.90;99.90;;;;;;4157083;28;20207;-75
2023/03/18 01:59:56;;;;;;;10.80;5.20;;;8.90;99.90;;;;;;4142797;28;20221;-76
2023/03/18 02:02:03;;;;;;;7.80;4.60;;;8.90;99.90;;;;;;4142068;28;20212;-75
2023/03/18 02:04:09;;;;;;;8.33;4.57;;;8.90;99.90;;;;;;4146177;28;20264;-74
2023/03/18 02:06:12;;;;;;;8.30;4.27;;;8.90;99.90;;;;;;4145344;28;20232;-75
2023/03/18 02:08:14;;;;;;;12.93;5.30;;;8.90;99.90;;;;;;4143377;28;20220;-77
2023/03/18 02:10:19;;;;;;;8.97;5.10;;;8.90;99.90;;;;;;4137167;28;20233;-75
2023/03/18 02:12:25;;;;;;;10.50;5.10;;;8.90;99.90;;;;;;4145305;28;20226;-75
2023/03/18 02:14:27;;;;;;;9.37;4.90;;;8.90;99.90;;;;;;4135855;28;20272;-75
2023/03/18 02:16:33;;;;;;;10.13;5.10;;;8.90;99.90;;;;;;4140581;28;20206;-75
2023/03/18 02:18:41;;;;;;;12.93;5.30;;;8.90;99.90;;;;;;4140248;28;20216;-75
2023/03/18 02:20:54;;;;;;;8.23;4.67;;;8.90;99.90;;;;;;4144880;28;20235;-75
2023/03/18 02:23:04;;;;;;;9.13;4.53;;;8.90;99.90;;;;;;4145722;28;20923;-74
2023/03/18 02:25:25;;;;;;;12.60;5.27;;;8.90;99.90;;;;;;4139899;28;20299;-75
2023/03/18 02:27:32;;;;;;;9.73;5.10;;;8.80;99.90;;;;;;4143019;28;20303;-74
2023/03/18 02:29:36;;;;;;;9.90;4.77;;;8.80;99.90;;;;;;4145487;28;20240;-76
2023/03/18 02:31:39;;;;;;;9.17;4.87;;;8.80;99.90;;;;;;4143453;28;20705;-75
2023/03/18 02:33:42;;;;;;;7.23;4.27;;;8.80;99.90;;;;;;4140691;28;20209;-74
2023/03/18 02:35:46;;;;;;;10.77;5.07;;;8.80;99.90;;;;;;4148356;28;20525;-75
2023/03/18 02:37:48;;;;;;;10.43;5.03;;;8.80;99.90;;;;;;4144363;28;20679;-75
2023/03/18 02:39:50;;;;;;;14.07;4.87;;;8.70;99.90;;;;;;4145538;28;20279;-75
2023/03/18 02:41:52;;;;;;;13.10;5.07;;;8.70;99.90;;;;;;4139970;28;20592;-75
2023/03/18 02:43:56;;;;;;;7.57;4.43;;;8.70;99.90;;;;;;4142311;28;20316;-76
2023/03/18 02:46:28;;;;;;;10.37;5.03;;;8.70;99.90;;;;;;4147391;28;20311;-75
2023/03/18 02:48:34;;;;;;;9.27;4.70;;;8.70;99.90;;;;;;4140221;28;20236;-74
2023/03/18 02:50:36;;;;;;;8.87;4.73;;;8.70;99.90;;;;;;4145558;28;20239;-76
2023/03/18 02:52:38;;;;;;;14.17;4.40;;;8.70;99.90;;;;;;4144239;28;20216;-76
2023/03/18 02:54:40;;;;;;;9.87;4.43;;;8.70;99.90;;;;;;4136393;28;20200;-75
2023/03/18 02:56:43;;;;;;;8.97;4.67;;;8.60;99.90;;;;;;4145772;28;20224;-76
2023/03/18 02:58:45;;;;;;;8.93;4.77;;;8.60;99.90;;;;;;4141782;28;20664;-74
2023/03/18 03:00:48;;;;;;;11.73;4.87;;;8.60;99.90;;;;;;4148946;28;20696;-75
2023/03/18 03:02:50;;;;;;;9.57;4.67;;;8.60;99.90;;;;;;4144333;28;20313;-75
2023/03/18 03:04:52;;;;;;;13.17;5.10;;;8.60;99.90;;;;;;4145000;28;20268;-75
2023/03/18 03:06:55;;;;;;;8.20;4.27;;;8.60;99.90;;;;;;4140308;28;20254;-75
2023/03/18 03:08:57;;;;;;;11.67;4.40;;;8.60;99.90;;;;;;4137773;28;20309;-75
2023/03/18 03:10:59;;;;;;;9.50;4.73;;;8.60;99.90;;;;;;4136963;28;20695;-75
2023/03/18 03:13:02;;;;;;;8.80;4.43;;;8.60;99.90;;;;;;4142104;28;20223;-74
2023/03/18 03:15:05;;;;;;;11.37;4.70;;;8.60;99.90;;;;;;4144785;28;20208;-75
2023/03/18 03:17:09;;;;;;;11.10;4.73;;;8.60;99.90;;;;;;4144350;28;20233;-75
2023/03/18 03:19:11;;;;;;;9.30;4.37;;;8.60;99.90;;;;;;4143028;28;20200;-75
2023/03/18 03:21:14;;;;;;;11.97;4.37;;;8.60;99.90;;;;;;4143868;28;20232;-75
2023/03/18 03:23:16;;;;;;;9.43;4.60;;;8.60;99.90;;;;;;4138566;28;20678;-75
2023/03/18 03:25:18;;;;;;;10.00;4.53;;;8.60;99.90;;;;;;4148468;28;20223;-74
2023/03/18 03:27:20;;;;;;;9.43;4.47;;;8.60;99.90;;;;;;4144459;28;20209;-74
2023/03/18 03:29:22;;;;;;;8.93;4.30;;;8.60;99.90;;;;;;4146674;28;20208;-76
2023/03/18 03:31:25;;;;;;;8.67;4.63;;;8.50;99.90;;;;;;4148616;28;20301;-75
2023/03/18 03:33:29;;;;;;;8.20;4.50;;;8.50;99.90;;;;;;4144049;28;20204;-76
2023/03/18 03:35:31;;;;;;;11.50;3.90;;;8.60;99.90;;;;;;4157033;28;20247;-74
2023/03/18 03:37:33;;;;;;;8.97;4.30;;;8.60;99.90;;;;;;4142555;28;20295;-75
2023/03/18 03:39:35;;;;;;;10.03;4.20;;;8.60;99.90;;;;;;4138670;28;20212;-77
2023/03/18 03:41:37;;;;;;;7.50;3.87;;;8.60;99.90;;;;;;4141030;28;20229;-75
2023/03/18 03:43:44;;;;;;;9.37;4.43;;;8.60;99.90;;;;;;4152731;28;20209;-76
2023/03/18 03:45:46;;;;;;;10.17;4.13;;;8.60;99.90;;;;;;4138987;28;20213;-78
2023/03/18 03:47:48;;;;;;;10.73;4.33;;;8.60;99.90;;;;;;4138075;28;20216;-77
2023/03/18 03:49:52;;;;;;;10.90;4.07;;;8.60;99.90;;;;;;4137843;28;20701;-77
2023/03/18 03:51:54;;;;;;;9.63;3.97;;;8.60;99.90;;;;;;4135613;28;20205;-76
2023/03/18 03:53:56;;;;;;;10.53;4.43;;;8.60;99.90;;;;;;4139354;28;20629;-76
2023/03/18 03:55:58;;;;;;;9.23;4.43;;;8.60;99.90;;;;;;4137555;28;20328;-75
2023/03/18 03:58:01;;;;;;;7.30;4.10;;;8.60;99.90;;;;;;4134298;28;20671;-77
2023/03/18 04:00:03;;;;;;;10.93;4.20;;;8.60;99.90;;;;;;4140851;28;20209;-77
2023/03/18 04:02:05;;;;;;;9.30;3.83;;;8.60;99.90;;;;;;4137703;28;20232;-77
2023/03/18 04:04:07;;;;;;;13.67;4.97;;;8.60;99.90;;;;;;4136340;28;20225;-78
2023/03/18 04:06:12;;;;;;;7.90;3.70;;;8.90;99.90;;;;;;4139800;28;20200;-77
2023/03/18 04:08:14;;;;;;;9.10;3.90;;;8.60;99.90;;;;;;4137101;28;20216;-77
2023/03/18 04:10:18;;;;;;;9.57;4.20;;;8.50;99.90;;;;;;4136427;28;20252;-78
2023/03/18 04:12:20;;;;;;;8.37;3.93;;;8.50;99.90;;;;;;4136688;28;20218;-78
2023/03/18 04:14:22;;;;;;;6.80;3.80;;;8.60;99.90;;;;;;4134928;28;20231;-77
2023/03/18 04:16:24;;;;;;;7.93;3.87;;;8.50;99.90;;;;;;4138179;28;20226;-77
2023/03/18 04:18:26;;;;;;;8.73;4.07;;;8.50;99.90;;;;;;4136576;28;20642;-77
2023/03/18 04:20:28;;;;;;;11.97;4.40;;;8.50;99.90;;;;;;4138337;28;20291;-76
2023/03/18 04:22:32;;;;;;;7.93;4.07;;;8.50;99.90;;;;;;4144457;28;20222;-77
2023/03/18 04:24:34;;;;;;;9.77;3.90;;;8.50;99.90;;;;;;4139165;28;20260;-77
2023/03/18 04:26:36;;;;;;;9.43;4.23;;;8.50;99.90;;;;;;4139383;28;20681;-76
2023/03/18 04:28:38;;;;;;;9.83;4.30;;;8.50;99.90;;;;;;4143694;28;20300;-75
2023/03/18 04:30:40;;;;;;;10.97;4.30;;;8.60;99.90;;;;;;4137100;28;20235;-74
2023/03/18 04:32:42;;;;;;;8.00;4.10;;;8.50;99.90;;;;;;4141590;28;20242;-75
2023/03/18 04:34:44;;;;;;;7.40;3.90;;;8.50;99.90;;;;;;4136709;28;20244;-76
2023/03/18 04:36:46;;;;;;;12.43;4.40;;;8.50;99.90;;;;;;4140934;28;20977;-76
2023/03/18 04:38:52;;;;;;;8.27;4.00;;;8.50;99.90;;;;;;4142245;28;20662;-74
2023/03/18 04:40:54;;;;;;;9.07;4.07;;;8.50;99.90;;;;;;4138855;28;20841;-75
2023/03/18 04:42:56;;;;;;;6.70;3.80;;;8.50;99.90;;;;;;4140802;28;20957;-75
2023/03/18 04:45:00;;;;;;;9.10;4.07;;;8.50;99.90;;;;;;4136104;28;20634;-76
2023/03/18 04:47:02;;;;;;;8.50;4.20;;;8.50;99.90;;;;;;4138296;28;20201;-76
2023/03/18 04:49:04;;;;;;;9.10;4.17;;;8.50;99.90;;;;;;4138791;28;20669;-74
2023/03/18 04:51:07;;;;;;;7.67;3.63;;;8.50;99.90;;;;;;4140047;28;20318;-74
2023/03/18 04:53:09;;;;;;;8.57;4.00;;;8.50;99.90;;;;;;4138022;28;20197;-75
2023/03/18 04:55:15;;;;;;;7.53;4.23;;;8.50;99.90;;;;;;4138201;28;20276;-75
2023/03/18 04:57:17;;;;;;;11.87;4.20;;;8.50;99.90;;;;;;4143530;28;20216;-76
2023/03/18 04:59:21;;;;;;;13.83;4.27;;;8.60;99.90;;;;;;4139822;28;20308;-75
2023/03/18 05:01:23;;;;;;;9.00;4.17;;;8.50;99.90;;;;;;4139084;28;20307;-74
2023/03/18 05:03:25;;;;;;;12.77;4.40;;;8.50;99.90;;;;;;4142678;28;20224;-75
2023/03/18 05:05:27;;;;;;;10.40;4.20;;;8.50;99.90;;;;;;4141241;28;20264;-75
2023/03/18 05:07:28;;;;;;;8.20;4.50;;;8.50;99.90;;;;;;4140918;28;20222;-76
2023/03/18 05:09:30;;;;;;;8.70;4.20;;;8.50;99.90;;;;;;4140366;28;20600;-74
2023/03/18 05:11:34;;;;;;;7.40;3.80;;;8.50;99.90;;;;;;4143592;28;20247;-74
2023/03/18 05:13:36;;;;;;;8.60;4.30;;;8.50;99.90;;;;;;4144801;28;20287;-76
2023/03/18 05:15:38;;;;;;;7.90;3.73;;;8.50;99.90;;;;;;4142310;28;20234;-74
2023/03/18 05:17:40;;;;;;;6.43;3.53;;;8.50;99.90;;;;;;4139674;28;20572;-74
2023/03/18 05:19:43;;;;;;;9.97;4.20;;;8.40;99.90;;;;;;4140869;28;20204;-75
2023/03/18 05:21:45;;;;;;;11.60;4.00;;;8.50;99.90;;;;;;4141951;28;20262;-76
2023/03/18 05:23:47;;;;;;;8.30;4.43;;;8.50;99.90;;;;;;4138254;28;20872;-74
2023/03/18 05:25:50;;;;;;;8.03;4.17;;;8.50;99.90;;;;;;4144724;28;20311;-74
2023/03/18 05:27:53;;;;;;;8.70;4.07;;;8.40;99.90;;;;;;4138029;28;20208;-74
2023/03/18 05:29:55;;;;;;;8.77;3.73;;;8.50;99.90;;;;;;4147036;28;20208;-74
2023/03/18 05:31:57;;;;;;;9.53;4.60;;;8.40;99.90;;;;;;4146268;28;20451;-74
2023/03/18 05:33:59;;;;;;;9.57;4.93;;;8.50;99.90;;;;;;4147091;28;20291;-74
2023/03/18 05:36:02;;;;;;;11.73;4.67;;;8.40;99.90;;;;;;4147235;28;20450;-75
2023/03/18 05:38:04;;;;;;;7.17;3.90;;;8.50;99.90;;;;;;4141913;28;20487;-75
2023/03/18 05:40:08;;;;;;;11.43;4.53;;;8.40;99.90;;;;;;4142070;28;20458;-74
2023/03/18 05:42:11;;;;;;;13.53;6.53;;;8.40;99.90;;;;;;4140327;28;20456;-74
2023/03/18 05:44:15;;;;;;;13.57;6.77;;;8.40;99.90;;;;;;4159473;28;20470;-74
2023/03/18 05:46:17;;;;;;;12.67;4.97;;;8.40;99.90;;;;;;4155263;28;20207;-74
2023/03/18 05:48:20;;;;;;;11.60;4.80;;;8.40;99.90;;;;;;4144046;28;20207;-75
2023/03/18 05:50:29;;;;;;;10.23;4.37;;;8.40;99.90;;;;;;4145203;28;20227;-74
2023/03/18 05:52:31;;;;;;;8.53;3.77;;;8.40;99.90;;;;;;4145698;28;20299;-74
2023/03/18 05:54:33;;;;;;;8.07;4.27;;;8.40;99.90;;;;;;4135751;28;20455;-75
2023/03/18 05:56:35;;;;;;;10.67;4.07;;;8.40;99.90;;;;;;4147655;28;20216;-75
2023/03/18 05:58:40;;;;;;;7.27;3.80;;;8.40;99.90;;;;;;4150905;28;20466;-74
2023/03/18 06:00:43;;;;;;;7.33;4.00;;;8.40;99.90;;;;;;4145680;28;20220;-74
2023/03/18 06:02:46;;;;;;;9.40;4.37;;;8.40;99.90;;;;;;4140582;28;21600;-74
2023/03/18 06:04:48;;;;;;;8.00;4.33;;;8.40;99.90;;;;;;4149884;28;21146;-75
2023/03/18 06:06:50;;;;;;;10.00;4.67;;;8.40;99.90;;;;;;4137429;28;20288;-75
2023/03/18 06:08:55;;;;;;;9.20;4.00;;;8.40;99.90;;;;;;4131909;28;20757;-75
2023/03/18 06:10:57;;;;;;;7.27;3.73;;;8.30;99.90;;;;;;4143963;28;20224;-74
2023/03/18 06:12:59;;;;;;;12.60;4.87;;;8.40;99.90;;;;;;4161922;28;20697;-75
2023/03/18 06:15:01;;;;;;;10.53;5.03;;;8.40;99.90;;;;;;4148262;28;20200;-74
2023/03/18 06:17:04;;;;;;;11.37;5.13;;;8.40;99.90;;;;;;4138449;28;20685;-75
2023/03/18 06:19:06;;;;;;;9.73;4.77;;;8.40;99.90;;;;;;4144715;28;20243;-74
2023/03/18 06:21:09;;;;;;;9.90;4.70;;;8.40;99.90;;;;;;4145230;28;20282;-75
2023/03/18 06:23:12;;;;;;;11.77;4.10;;;8.40;99.90;;;;;;4143236;28;20199;-75
2023/03/18 06:25:14;;;;;;;9.73;3.90;;;8.40;99.90;;;;;;4151929;28;20525;-75
2023/03/18 06:27:16;;;;;;;11.20;4.57;;;8.40;99.90;;;;;;4143828;28;20910;-75
2023/03/18 06:29:18;;;;;;;7.50;4.00;;;8.40;99.90;;;;;;4155558;28;20231;-81
2023/03/18 06:31:22;;;;;;;10.00;4.13;;;8.40;99.90;;;;;;4144496;28;20227;-75
2023/03/18 06:33:26;;;;;;;8.27;3.80;;;8.50;99.90;;;;;;4149131;28;20519;-75
2023/03/18 06:35:30;;;;;;;7.73;3.90;;;8.50;99.90;;;;;;4143428;28;20739;-80
2023/03/18 06:37:32;;;;;;;8.07;4.17;;;8.50;99.90;;;;;;4145237;28;20209;-75
2023/03/18 06:39:35;;;;;;;7.17;3.60;;;8.60;99.90;;;;;;4147819;28;20206;-77
2023/03/18 06:41:37;;;;;;;13.53;4.73;;;8.60;99.90;;;;;;4146223;28;20243;-76
2023/03/18 06:43:39;;;;;;;7.63;3.70;;;8.60;99.90;;;;;;4138716;28;20219;-77
2023/03/18 06:45:41;;;;;;;8.33;4.00;;;8.60;99.90;;;;;;4148150;28;20697;-77
2023/03/18 06:47:42;;;;;;;12.13;4.80;;;8.60;99.90;;;;;;4151722;28;20653;-76
2023/03/18 06:49:47;;;;;;;12.53;4.20;;;8.70;99.90;;;;;;4138558;28;20683;-75
2023/03/18 06:51:48;;;;;;;9.30;4.40;;;8.70;99.90;;;;;;4145305;28;20303;-78
2023/03/18 06:53:51;;;;;;;8.13;4.50;;;8.70;99.90;;;;;;4158657;28;20828;-76
2023/03/18 06:55:55;;;;;;;8.37;4.70;;;8.80;99.90;;;;;;4139802;28;20216;-76
2023/03/18 06:57:57;;;;;;;10.07;4.70;;;8.80;99.90;;;;;;4142015;28;20236;-77
2023/03/18 06:59:59;;;;;;;8.63;4.20;;;8.90;99.90;;;;;;4145845;28;20680;-76
2023/03/18 07:02:01;;;;;;;7.37;3.73;;;8.90;99.90;;;;;;4139273;28;20668;-78
2023/03/18 07:04:05;;;;;;;7.30;3.87;;;8.90;99.90;;;;;;4143990;28;20260;-75
2023/03/18 07:06:10;;;;;;;7.57;3.63;;;8.90;99.90;;;;;;4148784;28;20227;-74
2023/03/18 07:08:14;;;;;;;8.67;4.00;;;9.00;99.90;;;;;;4152481;28;20661;-74
2023/03/18 07:10:20;;;;;;;7.10;3.73;;;9.00;99.90;;;;;;4150734;28;20323;-75
2023/03/18 07:12:22;;;;;;;10.60;3.87;;;9.10;99.90;;;;;;4149557;28;20204;-76
2023/03/18 07:14:25;;;;;;;6.00;3.20;;;9.10;99.90;;;;;;4143913;28;20685;-80
2023/03/18 07:16:26;;;;;;;9.20;3.97;;;9.20;99.90;;;;;;4149573;28;20233;-76
2023/03/18 07:18:29;;;;;;;6.40;3.67;;;9.20;99.90;;;;;;4138396;28;20259;-74
2023/03/18 07:20:32;;;;;;;7.63;4.03;;;9.20;99.90;;;;;;4140619;28;20247;-77
2023/03/18 07:22:36;;;;;;;9.87;4.10;;;9.30;99.90;;;;;;4142791;28;20206;-73
2023/03/18 07:24:38;;;;;;;7.77;4.13;;;9.30;99.90;;;;;;4140910;28;20219;-73
2023/03/18 07:26:40;;;;;;;6.87;3.57;;;9.40;99.90;;;;;;4140008;28;20293;-73
2023/03/18 07:28:42;;;;;;;10.50;3.67;;;9.40;99.90;;;;;;4147099;28;20265;-72
2023/03/18 07:30:44;;;;;;;6.63;3.93;;;9.40;99.90;;;;;;4143443;28;20605;-74
2023/03/18 07:32:46;;;;;;;10.87;4.40;;;9.50;99.90;;;;;;4141113;28;20780;-74
2023/03/18 07:34:48;;;;;;;9.27;4.57;;;9.50;99.90;;;;;;4137369;28;20209;-74
2023/03/18 07:36:50;;;;;;;7.40;3.83;;;9.60;99.90;;;;;;4133390;28;20324;-74
2023/03/18 07:38:53;;;;;;;6.73;3.80;;;9.70;99.90;;;;;;4137548;28;20788;-74
2023/03/18 07:40:55;;;;;;;6.77;3.40;;;9.70;99.90;;;;;;4137729;28;20254;-74
2023/03/18 07:42:57;;;;;;;9.47;3.53;;;9.80;99.90;;;;;;4133409;28;20695;-74
2023/03/18 07:44:59;;;;;;;12.07;3.90;;;9.80;99.90;;;;;;4137709;28;20211;-74
2023/03/18 07:47:01;;;;;;;6.77;3.37;;;9.90;99.90;;;;;;4136170;28;20325;-75
2023/03/18 07:49:03;;;;;;;5.43;3.53;;;10.00;99.90;;;;;;4136862;28;20283;-75
2023/03/18 07:51:05;;;;;;;7.43;3.73;;;10.00;99.90;;;;;;4137130;28;20321;-73
2023/03/18 07:53:07;;;;;;;10.60;4.07;;;10.00;99.90;;;;;;4137091;28;20272;-71
2023/03/18 07:55:11;;;;;;;7.73;3.97;;;10.10;99.90;;;;;;4136758;28;20215;-74
2023/03/18 07:57:13;;;;;;;8.43;4.27;;;10.20;99.90;;;;;;4136845;28;20630;-73
2023/03/18 07:59:15;;;;;;;9.57;4.57;;;10.20;99.90;;;;;;4136355;28;20582;-74
2023/03/18 08:01:18;;;;;;;8.87;3.90;;;10.30;99.90;;;;;;4136765;28;20276;-73
2023/03/18 08:03:20;;;;;;;7.90;3.90;;;10.30;99.90;;;;;;4138976;28;20707;-73
2023/03/18 08:05:22;;;;;;;13.43;4.10;;;10.30;99.90;;;;;;4139624;28;20239;-76
2023/03/18 08:07:24;;;;;;;8.33;3.77;;;10.30;99.90;;;;;;4144544;28;20254;-73
2023/03/18 08:09:26;;;;;;;6.43;3.60;;;10.30;99.90;;;;;;4139826;28;20222;-75
2023/03/18 08:11:31;;;;;;;6.27;4.07;;;10.30;99.90;;;;;;4140846;28;20222;-72
2023/03/18 08:13:34;;;;;;;7.67;3.77;;;10.30;99.90;;;;;;4141465;28;20665;-72
2023/03/18 08:15:35;;;;;;;7.40;3.30;;;10.30;99.90;;;;;;4138456;28;20290;-72
2023/03/18 08:17:38;;;;;;;6.23;3.43;;;10.40;99.90;;;;;;4141188;28;20207;-73
2023/03/18 08:19:40;;;;;;;9.03;4.07;;;10.40;99.90;;;;;;4153824;28;20270;-74
2023/03/18 08:21:42;;;;;;;6.27;3.53;;;10.50;99.90;;;;;;4142224;28;20232;-75
2023/03/18 08:23:45;;;;;;;6.50;3.80;;;10.40;99.90;;;;;;4135429;28;20232;-72
2023/03/18 08:25:49;;;;;;;6.77;4.13;;;10.40;99.90;;;;;;4135901;28;20280;-72
2023/03/18 08:27:53;;;;;;;6.87;3.37;;;10.50;99.90;;;;;;4156457;28;20217;-73
2023/03/18 08:29:55;;;;;;;6.67;3.10;;;10.50;99.90;;;;;;4138198;28;20747;-73
2023/03/18 08:31:57;;;;;;;8.77;4.00;;;10.50;99.90;;;;;;4143909;28;20243;-73
2023/03/18 08:34:00;;;;;;;8.17;3.30;;;10.40;99.90;;;;;;4141809;28;20792;-73
2023/03/18 08:36:07;;;;;;;7.47;3.30;;;10.50;99.90;;;;;;4140687;28;20257;-75
2023/03/18 08:38:09;;;;;;;6.70;3.70;;;10.60;99.90;;;;;;4137571;28;20219;-73
2023/03/18 08:40:12;;;;;;;7.17;3.77;;;10.60;99.90;;;;;;4130791;28;20242;-73
2023/03/18 08:42:14;;;;;;;6.93;3.77;;;10.60;99.90;;;;;;4140259;28;20693;-73
2023/03/18 08:44:21;;;;;;;6.90;3.63;;;10.60;99.90;;;;;;4136118;28;20229;-75
2023/03/18 08:46:23;;;;;;;5.73;3.53;;;10.70;99.90;;;;;;4139317;28;20870;-73
2023/03/18 08:48:25;;;;;;;6.60;3.47;;;10.70;99.90;;;;;;4141833;28;20813;-73
2023/03/18 08:50:28;;;;;;;7.60;3.90;;;10.70;99.90;;;;;;4138535;28;20250;-74
2023/03/18 08:52:31;;;;;;;6.43;3.73;;;10.80;99.90;;;;;;4138145;28;20319;-73
2023/03/18 08:54:34;;;;;;;7.87;3.57;;;10.80;99.90;;;;;;4136354;28;20226;-72
2023/03/18 08:56:37;;;;;;;7.27;3.53;;;10.90;99.90;;;;;;4135685;28;20235;-73
2023/03/18 08:58:38;;;;;;;6.33;3.40;;;10.90;99.90;;;;;;4137626;28;20231;-73
2023/03/18 09:00:42;;;;;;;6.83;3.33;;;10.90;99.90;;;;;;4134913;28;20250;-73
2023/03/18 09:02:44;;;;;;;8.00;4.00;;;11.00;99.90;;;;;;4141270;28;20227;-73
2023/03/18 09:04:48;;;;;;;7.60;3.60;;;11.10;99.90;;;;;;4136946;28;20222;-72
2023/03/18 09:06:50;;;;;;;7.10;3.70;;;11.20;99.90;;;;;;4134883;28;20216;-73
2023/03/18 09:08:52;;;;;;;13.37;5.70;;;11.20;99.90;;;;;;4137832;28;20765;-72
2023/03/18 09:10:54;;;;;;;9.30;4.57;;;11.40;99.90;;;;;;4135947;28;20246;-75
2023/03/18 09:12:56;;;;;;;6.17;3.70;;;11.40;99.90;;;;;;4138295;28;20206;-73
2023/03/18 09:14:58;;;;;;;7.37;3.70;;;11.60;99.90;;;;;;4140875;28;20223;-75
2023/03/18 09:17:01;;;;;;;7.40;3.70;;;11.70;99.90;;;;;;4136235;28;20204;-72
2023/03/18 09:19:03;;;;;;;7.00;3.67;;;11.80;99.90;;;;;;4137422;28;20693;-72
2023/03/18 09:21:05;;;;;;;5.77;3.67;;;11.90;99.90;;;;;;4143571;28;20261;-72
2023/03/18 09:23:08;;;;;;;10.80;3.70;;;12.00;99.90;;;;;;4141787;28;20212;-72
2023/03/18 09:25:11;;;;;;;6.57;3.60;;;12.10;99.90;;;;;;4138648;28;20674;-73
2023/03/18 09:27:13;;;;;;;6.87;4.03;;;12.20;99.90;;;;;;4137060;28;20216;-73
2023/03/18 09:29:15;;;;;;;8.97;4.07;;;12.20;99.90;;;;;;4138276;28;20212;-71
2023/03/18 09:31:18;;;;;;;8.93;3.50;;;12.30;99.90;;;;;;4158242;28;20585;-73
2023/03/18 09:33:29;;;;;;;6.77;3.53;;;12.40;99.90;;;;;;4137527;28;20930;-75
2023/03/18 09:35:31;;;;;;;6.80;4.10;;;12.40;99.90;;;;;;4139638;28;20551;-75
2023/03/18 09:37:33;;;;;;;6.13;3.50;;;12.40;99.90;;;;;;4155553;28;20564;-74
2023/03/18 09:39:36;;;;;;;9.80;3.93;;;12.40;99.90;;;;;;4138140;28;20212;-75
2023/03/18 09:41:47;;;;;;;11.23;4.23;;;12.50;99.90;;;;;;4135684;28;20361;-74
2023/03/18 09:43:59;;;;;;;10.37;4.20;;;12.50;99.90;;;;;;4139273;28;20207;-77
2023/03/18 09:46:08;;;;;;;5.93;3.57;;;12.60;99.90;;;;;;4136358;28;20261;-77
2023/03/18 09:48:39;;;;;;;6.63;3.50;;;12.60;99.90;;;;;;4139101;28;20204;-74
2023/03/18 09:50:47;;;;;;;7.60;3.40;;;12.60;99.90;;;;;;4141469;28;20329;-73
2023/03/18 09:53:01;;;;;;;6.37;3.47;;;12.60;99.90;;;;;;4155816;28;20239;-74
2023/03/18 09:55:12;;;;;;;6.77;3.30;;;12.70;99.90;;;;;;4138194;28;20212;-76
2023/03/18 09:57:21;;;;;;;9.40;4.00;;;12.70;99.90;;;;;;4137311;28;20287;-73
2023/03/18 09:59:29;;;;;;;8.30;3.80;;;12.80;99.90;;;;;;4136650;28;20219;-74
2023/03/18 10:01:35;;;;;;;9.70;4.00;;;12.90;99.90;;;;;;4142277;28;20231;-73
2023/03/18 10:03:46;;;;;;;10.73;3.50;;;12.90;99.90;;;;;;4138754;28;20617;-74
2023/03/18 10:05:51;;;;;;;6.20;3.50;;;13.00;99.90;;;;;;4136508;28;20194;-74
2023/03/18 10:07:59;;;;;;;6.10;3.30;;;13.20;99.90;;;;;;4137850;28;20207;-74
2023/03/18 10:10:06;;;;;;;6.97;3.97;;;13.30;99.90;;;;;;4143143;28;20235;-74
2023/03/18 10:12:19;;;;;;;7.47;3.83;;;13.50;99.90;;;;;;4152614;28;20224;-74
2023/03/18 10:14:36;;;;;;;5.87;3.30;;;13.70;99.90;;;;;;4138461;28;20212;-74
2023/03/18 10:16:51;;;;;;;7.87;3.63;;;13.90;99.90;;;;;;4137648;28;20210;-75
2023/03/18 10:18:55;;;;;;;6.23;3.30;;;14.10;99.90;;;;;;4137885;28;20206;-74
2023/03/18 10:21:10;;;;;;;15.50;3.77;;;14.20;99.90;;;;;;4138907;28;20228;-74
2023/03/18 10:23:21;;;;;;;7.37;3.30;;;14.40;99.90;;;;;;4142019;28;20202;-75
2023/03/18 10:25:28;;;;;;;5.93;2.90;;;14.50;99.90;;;;;;4138056;28;20218;-74
2023/03/18 10:27:45;;;;;;;8.43;3.70;;;14.60;99.90;;;;;;4136868;28;20246;-75
2023/03/18 10:29:54;;;;;;;16.63;5.83;;;14.60;99.90;;;;;;4146732;28;20243;-74
2023/03/18 10:32:09;;;;;;;38.40;14.07;;;14.70;99.90;;;;;;4153115;28;20203;-74
2023/03/18 10:34:15;;;;;;;13.83;5.60;;;14.80;99.90;;;;;;4140937;28;20208;-74
2023/03/18 10:36:22;;;;;;;8.23;3.60;;;14.90;99.90;;;;;;4143485;28;20235;-73
2023/03/18 10:38:28;;;;;;;13.20;5.00;;;15.00;99.90;;;;;;4142225;28;20294;-74
2023/03/18 10:40:37;;;;;;;10.50;4.10;;;15.10;99.90;;;;;;4151502;28;20760;-74
2023/03/18 10:42:40;;;;;;;11.47;4.93;;;15.30;99.90;;;;;;4139313;28;20215;-74
2023/03/18 10:44:42;;;;;;;9.43;3.63;;;15.50;99.90;;;;;;4140904;28;20302;-72
2023/03/18 10:46:46;;;;;;;10.27;5.30;;;15.60;99.90;;;;;;4140462;28;20311;-72